sensor_id;sensor_type;location;lat;lon;timestamp;P1;durP1;ratioP1;P2;durP2;ratioP2
73296;SDS011;61524;50.938;11.396;2023-09-18T00:00:21;7.20;;;3.30;;
73296;SDS011;61524;50.938;11.396;2023-09-18T00:02:47;6.30;;;3.57;;
73296;SDS011;61524;50.938;11.396;2023-09-18T00:05:12;4.90;;;3.20;;
73296;SDS011;61524;50.938;11.396;2023-09-18T00:07:40;6.90;;;3.72;;
73296;SDS011;61524;50.938;11.396;2023-09-18T00:10:06;4.93;;;3.22;;
73296;SDS011;61524;50.938;11.396;2023-09-18T00:12:31;5.65;;;3.50;;
73296;SDS011;61524;50.938;11.396;2023-09-18T00:14:56;5.20;;;3.30;;
73296;SDS011;61524;50.938;11.396;2023-09-18T00:17:22;4.77;;;2.97;;
73296;SDS011;61524;50.938;11.396;2023-09-18T00:19:47;5.50;;;3.35;;
73296;SDS011;61524;50.938;11.396;2023-09-18T00:22:13;6.73;;;3.23;;
73296;SDS011;61524;50.938;11.396;2023-09-18T00:24:38;5.63;;;3.47;;
73296;SDS011;61524;50.938;11.396;2023-09-18T00:27:03;5.13;;;3.33;;
73296;SDS011;61524;50.938;11.396;2023-09-18T00:29:29;6.25;;;3.50;;
73296;SDS011;61524;50.938;11.396;2023-09-18T00:31:54;5.47;;;3.70;;
73296;SDS011;61524;50.938;11.396;2023-09-18T00:34:19;5.57;;;3.72;;
73296;SDS011;61524;50.938;11.396;2023-09-18T00:36:44;6.03;;;3.73;;
73296;SDS011;61524;50.938;11.396;2023-09-18T00:39:10;5.80;;;3.50;;
73296;SDS011;61524;50.938;11.396;2023-09-18T00:41:35;6.07;;;3.70;;
73296;SDS011;61524;50.938;11.396;2023-09-18T00:44:01;5.22;;;3.60;;
73296;SDS011;61524;50.938;11.396;2023-09-18T00:46:26;6.80;;;4.07;;
73296;SDS011;61524;50.938;11.396;2023-09-18T00:48:52;4.97;;;3.50;;
73296;SDS011;61524;50.938;11.396;2023-09-18T00:51:18;5.70;;;3.60;;
73296;SDS011;61524;50.938;11.396;2023-09-18T00:53:44;5.68;;;3.33;;
73296;SDS011;61524;50.938;11.396;2023-09-18T00:56:10;10.45;;;3.70;;
73296;SDS011;61524;50.938;11.396;2023-09-18T00:58:35;5.35;;;3.22;;
73296;SDS011;61524;50.938;11.396;2023-09-18T01:01:01;5.68;;;3.92;;
73296;SDS011;61524;50.938;11.396;2023-09-18T01:03:26;5.90;;;3.90;;
73296;SDS011;61524;50.938;11.396;2023-09-18T01:05:51;5.67;;;3.47;;
73296;SDS011;61524;50.938;11.396;2023-09-18T01:08:17;5.53;;;3.60;;
73296;SDS011;61524;50.938;11.396;2023-09-18T01:10:47;6.75;;;3.63;;
73296;SDS011;61524;50.938;11.396;2023-09-18T01:13:14;6.07;;;3.92;;
73296;SDS011;61524;50.938;11.396;2023-09-18T01:15:44;6.38;;;3.72;;
73296;SDS011;61524;50.938;11.396;2023-09-18T01:18:12;6.50;;;3.80;;
73296;SDS011;61524;50.938;11.396;2023-09-18T01:20:38;6.35;;;4.18;;
73296;SDS011;61524;50.938;11.396;2023-09-18T01:23:03;6.63;;;3.90;;
73296;SDS011;61524;50.938;11.396;2023-09-18T01:25:30;5.93;;;3.73;;
73296;SDS011;61524;50.938;11.396;2023-09-18T01:27:55;5.90;;;4.00;;
73296;SDS011;61524;50.938;11.396;2023-09-18T01:30:21;6.23;;;3.97;;
73296;SDS011;61524;50.938;11.396;2023-09-18T01:32:46;6.17;;;3.87;;
73296;SDS011;61524;50.938;11.396;2023-09-18T01:35:11;6.22;;;3.88;;
73296;SDS011;61524;50.938;11.396;2023-09-18T01:37:37;6.13;;;3.75;;
73296;SDS011;61524;50.938;11.396;2023-09-18T01:40:03;6.30;;;4.03;;
73296;SDS011;61524;50.938;11.396;2023-09-18T01:42:31;6.03;;;3.63;;
73296;SDS011;61524;50.938;11.396;2023-09-18T01:44:57;7.55;;;4.30;;
73296;SDS011;61524;50.938;11.396;2023-09-18T01:47:22;5.73;;;3.20;;
73296;SDS011;61524;50.938;11.396;2023-09-18T01:49:52;7.28;;;3.67;;
73296;SDS011;61524;50.938;11.396;2023-09-18T01:52:17;6.82;;;3.70;;
73296;SDS011;61524;50.938;11.396;2023-09-18T01:54:42;6.07;;;3.88;;
73296;SDS011;61524;50.938;11.396;2023-09-18T01:57:08;6.73;;;4.33;;
73296;SDS011;61524;50.938;11.396;2023-09-18T01:59:33;5.72;;;4.00;;
73296;SDS011;61524;50.938;11.396;2023-09-18T02:01:59;6.43;;;3.97;;
73296;SDS011;61524;50.938;11.396;2023-09-18T02:04:25;6.00;;;3.72;;
73296;SDS011;61524;50.938;11.396;2023-09-18T02:06:50;5.53;;;3.72;;
73296;SDS011;61524;50.938;11.396;2023-09-18T02:09:17;7.43;;;3.85;;
73296;SDS011;61524;50.938;11.396;2023-09-18T02:11:43;6.00;;;4.03;;
73296;SDS011;61524;50.938;11.396;2023-09-18T02:14:09;5.57;;;4.00;;
73296;SDS011;61524;50.938;11.396;2023-09-18T02:16:38;6.68;;;3.55;;
73296;SDS011;61524;50.938;11.396;2023-09-18T02:19:06;6.28;;;4.18;;
73296;SDS011;61524;50.938;11.396;2023-09-18T02:21:32;6.90;;;4.10;;
73296;SDS011;61524;50.938;11.396;2023-09-18T02:23:57;6.40;;;4.20;;
73296;SDS011;61524;50.938;11.396;2023-09-18T02:26:23;7.63;;;4.30;;
73296;SDS011;61524;50.938;11.396;2023-09-18T02:28:48;6.70;;;4.03;;
73296;SDS011;61524;50.938;11.396;2023-09-18T02:31:14;6.65;;;3.95;;
73296;SDS011;61524;50.938;11.396;2023-09-18T02:33:40;5.63;;;3.65;;
73296;SDS011;61524;50.938;11.396;2023-09-18T02:36:06;7.55;;;4.35;;
73296;SDS011;61524;50.938;11.396;2023-09-18T02:38:32;6.72;;;4.10;;
73296;SDS011;61524;50.938;11.396;2023-09-18T02:40:57;7.22;;;4.10;;
73296;SDS011;61524;50.938;11.396;2023-09-18T02:43:23;8.55;;;3.85;;
73296;SDS011;61524;50.938;11.396;2023-09-18T02:45:48;6.25;;;4.00;;
73296;SDS011;61524;50.938;11.396;2023-09-18T02:48:14;6.45;;;4.30;;
73296;SDS011;61524;50.938;11.396;2023-09-18T02:50:39;7.25;;;4.05;;
73296;SDS011;61524;50.938;11.396;2023-09-18T02:53:05;6.30;;;4.13;;
73296;SDS011;61524;50.938;11.396;2023-09-18T02:55:31;6.28;;;4.28;;
73296;SDS011;61524;50.938;11.396;2023-09-18T02:57:56;6.67;;;4.03;;
73296;SDS011;61524;50.938;11.396;2023-09-18T03:00:21;5.90;;;3.85;;
73296;SDS011;61524;50.938;11.396;2023-09-18T03:02:47;5.60;;;4.13;;
73296;SDS011;61524;50.938;11.396;2023-09-18T03:05:12;6.13;;;4.22;;
73296;SDS011;61524;50.938;11.396;2023-09-18T03:07:37;5.70;;;4.07;;
73296;SDS011;61524;50.938;11.396;2023-09-18T03:10:03;6.13;;;4.23;;
73296;SDS011;61524;50.938;11.396;2023-09-18T03:12:29;7.90;;;4.40;;
73296;SDS011;61524;50.938;11.396;2023-09-18T03:14:55;7.03;;;4.25;;
73296;SDS011;61524;50.938;11.396;2023-09-18T03:17:20;6.37;;;4.00;;
73296;SDS011;61524;50.938;11.396;2023-09-18T03:19:47;8.67;;;4.23;;
73296;SDS011;61524;50.938;11.396;2023-09-18T03:22:12;6.30;;;4.03;;
73296;SDS011;61524;50.938;11.396;2023-09-18T03:24:38;6.23;;;4.20;;
73296;SDS011;61524;50.938;11.396;2023-09-18T03:27:03;6.53;;;4.40;;
73296;SDS011;61524;50.938;11.396;2023-09-18T03:29:28;6.97;;;4.32;;
73296;SDS011;61524;50.938;11.396;2023-09-18T03:31:55;7.78;;;4.47;;
73296;SDS011;61524;50.938;11.396;2023-09-18T03:34:23;7.93;;;4.45;;
73296;SDS011;61524;50.938;11.396;2023-09-18T03:36:51;6.63;;;5.05;;
73296;SDS011;61524;50.938;11.396;2023-09-18T03:39:16;6.13;;;4.38;;
73296;SDS011;61524;50.938;11.396;2023-09-18T03:41:41;7.57;;;4.53;;
73296;SDS011;61524;50.938;11.396;2023-09-18T03:44:07;7.50;;;4.40;;
73296;SDS011;61524;50.938;11.396;2023-09-18T03:46:32;6.93;;;4.55;;
73296;SDS011;61524;50.938;11.396;2023-09-18T03:48:57;5.80;;;4.15;;
73296;SDS011;61524;50.938;11.396;2023-09-18T03:51:23;6.72;;;5.05;;
73296;SDS011;61524;50.938;11.396;2023-09-18T03:53:48;6.35;;;4.47;;
73296;SDS011;61524;50.938;11.396;2023-09-18T03:56:13;6.75;;;4.28;;
73296;SDS011;61524;50.938;11.396;2023-09-18T03:58:39;6.38;;;4.10;;
73296;SDS011;61524;50.938;11.396;2023-09-18T04:01:04;6.83;;;4.40;;
73296;SDS011;61524;50.938;11.396;2023-09-18T04:03:29;6.30;;;4.30;;
73296;SDS011;61524;50.938;11.396;2023-09-18T04:05:55;6.17;;;4.07;;
73296;SDS011;61524;50.938;11.396;2023-09-18T04:08:20;6.83;;;4.80;;
73296;SDS011;61524;50.938;11.396;2023-09-18T04:10:47;7.17;;;4.53;;
73296;SDS011;61524;50.938;11.396;2023-09-18T04:13:13;6.05;;;4.30;;
73296;SDS011;61524;50.938;11.396;2023-09-18T04:15:38;7.70;;;4.23;;
73296;SDS011;61524;50.938;11.396;2023-09-18T04:18:04;7.50;;;4.50;;
73296;SDS011;61524;50.938;11.396;2023-09-18T04:25:39;7.50;;;4.30;;
73296;SDS011;61524;50.938;11.396;2023-09-18T04:28:05;6.20;;;4.43;;
73296;SDS011;61524;50.938;11.396;2023-09-18T04:30:30;7.83;;;5.07;;
73296;SDS011;61524;50.938;11.396;2023-09-18T04:32:55;7.50;;;5.00;;
73296;SDS011;61524;50.938;11.396;2023-09-18T04:35:24;8.33;;;4.77;;
73296;SDS011;61524;50.938;11.396;2023-09-18T04:38:06;6.75;;;4.60;;
73296;SDS011;61524;50.938;11.396;2023-09-18T04:40:31;7.50;;;4.75;;
73296;SDS011;61524;50.938;11.396;2023-09-18T04:43:00;6.57;;;4.60;;
73296;SDS011;61524;50.938;11.396;2023-09-18T04:45:25;7.53;;;5.00;;
73296;SDS011;61524;50.938;11.396;2023-09-18T04:47:51;7.28;;;4.65;;
73296;SDS011;61524;50.938;11.396;2023-09-18T04:50:16;7.38;;;4.80;;
73296;SDS011;61524;50.938;11.396;2023-09-18T04:52:42;8.50;;;4.97;;
73296;SDS011;61524;50.938;11.396;2023-09-18T04:55:07;6.82;;;4.60;;
73296;SDS011;61524;50.938;11.396;2023-09-18T04:57:33;6.70;;;4.70;;
73296;SDS011;61524;50.938;11.396;2023-09-18T04:59:59;6.45;;;4.22;;
73296;SDS011;61524;50.938;11.396;2023-09-18T05:02:24;8.27;;;4.60;;
73296;SDS011;61524;50.938;11.396;2023-09-18T05:04:50;6.80;;;4.53;;
73296;SDS011;61524;50.938;11.396;2023-09-18T05:07:16;5.68;;;3.80;;
73296;SDS011;61524;50.938;11.396;2023-09-18T05:09:41;6.07;;;4.50;;
73296;SDS011;61524;50.938;11.396;2023-09-18T05:12:06;7.55;;;4.45;;
73296;SDS011;61524;50.938;11.396;2023-09-18T05:14:38;7.85;;;4.15;;
73296;SDS011;61524;50.938;11.396;2023-09-18T05:17:03;8.33;;;4.57;;
73296;SDS011;61524;50.938;11.396;2023-09-18T05:19:28;7.47;;;4.90;;
73296;SDS011;61524;50.938;11.396;2023-09-18T05:21:54;6.53;;;3.97;;
73296;SDS011;61524;50.938;11.396;2023-09-18T05:24:19;7.10;;;4.30;;
73296;SDS011;61524;50.938;11.396;2023-09-18T05:26:51;6.28;;;4.05;;
73296;SDS011;61524;50.938;11.396;2023-09-18T05:29:18;7.30;;;4.05;;
73296;SDS011;61524;50.938;11.396;2023-09-18T05:31:43;6.10;;;4.20;;
73296;SDS011;61524;50.938;11.396;2023-09-18T05:34:08;7.53;;;4.00;;
73296;SDS011;61524;50.938;11.396;2023-09-18T05:36:34;6.88;;;4.15;;
73296;SDS011;61524;50.938;11.396;2023-09-18T05:38:59;6.17;;;3.83;;
73296;SDS011;61524;50.938;11.396;2023-09-18T05:41:25;5.63;;;3.67;;
73296;SDS011;61524;50.938;11.396;2023-09-18T05:43:51;6.22;;;4.20;;
73296;SDS011;61524;50.938;11.396;2023-09-18T05:46:17;6.57;;;3.58;;
73296;SDS011;61524;50.938;11.396;2023-09-18T05:48:42;6.47;;;3.90;;
73296;SDS011;61524;50.938;11.396;2023-09-18T05:51:07;5.07;;;3.28;;
73296;SDS011;61524;50.938;11.396;2023-09-18T05:53:33;6.10;;;3.43;;
73296;SDS011;61524;50.938;11.396;2023-09-18T05:55:59;5.22;;;3.15;;
73296;SDS011;61524;50.938;11.396;2023-09-18T05:58:29;6.25;;;3.95;;
73296;SDS011;61524;50.938;11.396;2023-09-18T06:00:57;5.70;;;3.42;;
73296;SDS011;61524;50.938;11.396;2023-09-18T06:03:22;5.13;;;3.70;;
73296;SDS011;61524;50.938;11.396;2023-09-18T06:05:48;4.32;;;2.67;;
73296;SDS011;61524;50.938;11.396;2023-09-18T06:08:13;7.03;;;2.97;;
73296;SDS011;61524;50.938;11.396;2023-09-18T06:10:38;4.47;;;3.13;;
73296;SDS011;61524;50.938;11.396;2023-09-18T06:13:04;6.37;;;4.23;;
73296;SDS011;61524;50.938;11.396;2023-09-18T06:15:31;5.97;;;3.00;;
73296;SDS011;61524;50.938;11.396;2023-09-18T06:17:56;5.40;;;2.95;;
73296;SDS011;61524;50.938;11.396;2023-09-18T06:20:21;4.93;;;2.80;;
73296;SDS011;61524;50.938;11.396;2023-09-18T06:22:47;5.47;;;3.00;;
73296;SDS011;61524;50.938;11.396;2023-09-18T06:25:12;5.17;;;2.93;;
73296;SDS011;61524;50.938;11.396;2023-09-18T06:27:38;5.65;;;3.08;;
73296;SDS011;61524;50.938;11.396;2023-09-18T06:30:04;5.95;;;3.13;;
73296;SDS011;61524;50.938;11.396;2023-09-18T06:32:30;4.38;;;2.70;;
73296;SDS011;61524;50.938;11.396;2023-09-18T06:34:55;4.15;;;2.78;;
73296;SDS011;61524;50.938;11.396;2023-09-18T06:37:22;5.97;;;3.13;;
73296;SDS011;61524;50.938;11.396;2023-09-18T06:39:47;4.05;;;2.53;;
73296;SDS011;61524;50.938;11.396;2023-09-18T06:42:13;5.35;;;2.97;;
73296;SDS011;61524;50.938;11.396;2023-09-18T06:44:39;4.70;;;3.00;;
73296;SDS011;61524;50.938;11.396;2023-09-18T06:47:04;7.13;;;2.97;;
73296;SDS011;61524;50.938;11.396;2023-09-18T06:49:29;8.05;;;3.28;;
73296;SDS011;61524;50.938;11.396;2023-09-18T06:51:56;5.70;;;3.17;;
73296;SDS011;61524;50.938;11.396;2023-09-18T06:54:21;6.00;;;2.90;;
73296;SDS011;61524;50.938;11.396;2023-09-18T06:56:46;5.22;;;2.97;;
73296;SDS011;61524;50.938;11.396;2023-09-18T06:59:12;4.97;;;3.13;;
73296;SDS011;61524;50.938;11.396;2023-09-18T07:01:37;6.32;;;3.22;;
73296;SDS011;61524;50.938;11.396;2023-09-18T07:04:03;5.50;;;3.65;;
73296;SDS011;61524;50.938;11.396;2023-09-18T07:06:29;7.63;;;3.75;;
73296;SDS011;61524;50.938;11.396;2023-09-18T07:08:55;6.63;;;3.40;;
73296;SDS011;61524;50.938;11.396;2023-09-18T07:11:20;7.20;;;3.53;;
73296;SDS011;61524;50.938;11.396;2023-09-18T07:13:45;7.72;;;2.92;;
73296;SDS011;61524;50.938;11.396;2023-09-18T07:16:11;11.15;;;3.35;;
73296;SDS011;61524;50.938;11.396;2023-09-18T07:18:36;4.80;;;2.80;;
73296;SDS011;61524;50.938;11.396;2023-09-18T07:21:02;8.80;;;3.60;;
73296;SDS011;61524;50.938;11.396;2023-09-18T07:23:27;6.72;;;3.47;;
73296;SDS011;61524;50.938;11.396;2023-09-18T07:25:53;5.32;;;3.03;;
73296;SDS011;61524;50.938;11.396;2023-09-18T07:28:18;6.03;;;3.63;;
73296;SDS011;61524;50.938;11.396;2023-09-18T07:30:45;7.05;;;3.33;;
73296;SDS011;61524;50.938;11.396;2023-09-18T07:33:11;6.10;;;3.22;;
73296;SDS011;61524;50.938;11.396;2023-09-18T07:35:36;5.07;;;3.10;;
73296;SDS011;61524;50.938;11.396;2023-09-18T07:38:01;4.40;;;2.72;;
73296;SDS011;61524;50.938;11.396;2023-09-18T07:40:27;4.25;;;2.65;;
73296;SDS011;61524;50.938;11.396;2023-09-18T07:42:52;5.47;;;3.30;;
73296;SDS011;61524;50.938;11.396;2023-09-18T07:45:18;5.17;;;3.40;;
73296;SDS011;61524;50.938;11.396;2023-09-18T07:47:43;6.07;;;3.83;;
73296;SDS011;61524;50.938;11.396;2023-09-18T07:50:09;5.68;;;3.10;;
73296;SDS011;61524;50.938;11.396;2023-09-18T07:52:34;5.35;;;2.80;;
73296;SDS011;61524;50.938;11.396;2023-09-18T07:54:59;8.10;;;3.60;;
73296;SDS011;61524;50.938;11.396;2023-09-18T07:57:25;6.77;;;3.03;;
73296;SDS011;61524;50.938;11.396;2023-09-18T07:59:53;5.57;;;3.30;;
73296;SDS011;61524;50.938;11.396;2023-09-18T08:02:18;6.03;;;2.88;;
73296;SDS011;61524;50.938;11.396;2023-09-18T08:04:44;7.47;;;3.13;;
73296;SDS011;61524;50.938;11.396;2023-09-18T08:07:09;5.47;;;3.33;;
73296;SDS011;61524;50.938;11.396;2023-09-18T08:09:34;6.82;;;3.20;;
73296;SDS011;61524;50.938;11.396;2023-09-18T08:12:02;7.30;;;3.38;;
73296;SDS011;61524;50.938;11.396;2023-09-18T08:14:27;5.72;;;3.17;;
73296;SDS011;61524;50.938;11.396;2023-09-18T08:16:56;5.67;;;3.30;;
73296;SDS011;61524;50.938;11.396;2023-09-18T08:19:22;7.93;;;3.60;;
73296;SDS011;61524;50.938;11.396;2023-09-18T08:21:48;5.53;;;3.05;;
73296;SDS011;61524;50.938;11.396;2023-09-18T08:24:13;5.70;;;3.30;;
73296;SDS011;61524;50.938;11.396;2023-09-18T08:26:39;7.67;;;3.47;;
73296;SDS011;61524;50.938;11.396;2023-09-18T08:29:04;7.03;;;3.15;;
73296;SDS011;61524;50.938;11.396;2023-09-18T08:31:30;5.60;;;3.17;;
73296;SDS011;61524;50.938;11.396;2023-09-18T08:33:56;7.18;;;2.85;;
73296;SDS011;61524;50.938;11.396;2023-09-18T08:36:22;5.40;;;3.00;;
73296;SDS011;61524;50.938;11.396;2023-09-18T08:38:47;5.32;;;3.17;;
73296;SDS011;61524;50.938;11.396;2023-09-18T08:41:12;5.97;;;3.15;;
73296;SDS011;61524;50.938;11.396;2023-09-18T08:43:39;5.10;;;2.92;;
73296;SDS011;61524;50.938;11.396;2023-09-18T08:46:06;6.20;;;3.67;;
73296;SDS011;61524;50.938;11.396;2023-09-18T08:48:31;5.40;;;3.42;;
73296;SDS011;61524;50.938;11.396;2023-09-18T08:51:03;7.03;;;4.10;;
73296;SDS011;61524;50.938;11.396;2023-09-18T08:53:34;7.63;;;3.67;;
73296;SDS011;61524;50.938;11.396;2023-09-18T08:56:00;6.82;;;3.80;;
73296;SDS011;61524;50.938;11.396;2023-09-18T08:58:31;7.32;;;3.53;;
73296;SDS011;61524;50.938;11.396;2023-09-18T09:00:57;5.43;;;3.00;;
73296;SDS011;61524;50.938;11.396;2023-09-18T09:03:23;5.57;;;3.33;;
73296;SDS011;61524;50.938;11.396;2023-09-18T09:05:48;5.07;;;3.30;;
73296;SDS011;61524;50.938;11.396;2023-09-18T09:08:13;6.57;;;3.93;;
73296;SDS011;61524;50.938;11.396;2023-09-18T09:10:40;7.75;;;3.40;;
73296;SDS011;61524;50.938;11.396;2023-09-18T09:13:05;7.10;;;3.38;;
73296;SDS011;61524;50.938;11.396;2023-09-18T09:15:46;5.53;;;3.10;;
73296;SDS011;61524;50.938;11.396;2023-09-18T09:18:11;9.15;;;3.38;;
73296;SDS011;61524;50.938;11.396;2023-09-18T09:20:37;6.05;;;3.08;;
73296;SDS011;61524;50.938;11.396;2023-09-18T09:23:03;8.45;;;4.20;;
73296;SDS011;61524;50.938;11.396;2023-09-18T09:25:29;7.32;;;3.13;;
73296;SDS011;61524;50.938;11.396;2023-09-18T09:28:02;7.55;;;3.70;;
73296;SDS011;61524;50.938;11.396;2023-09-18T09:30:28;11.43;;;3.58;;
73296;SDS011;61524;50.938;11.396;2023-09-18T09:32:55;11.30;;;3.67;;
73296;SDS011;61524;50.938;11.396;2023-09-18T09:35:28;10.40;;;3.50;;
73296;SDS011;61524;50.938;11.396;2023-09-18T09:37:58;13.88;;;3.72;;
73296;SDS011;61524;50.938;11.396;2023-09-18T09:40:26;8.93;;;3.40;;
73296;SDS011;61524;50.938;11.396;2023-09-18T09:42:52;8.30;;;3.17;;
73296;SDS011;61524;50.938;11.396;2023-09-18T09:45:19;7.30;;;3.05;;
73296;SDS011;61524;50.938;11.396;2023-09-18T09:47:44;7.68;;;3.05;;
73296;SDS011;61524;50.938;11.396;2023-09-18T09:52:35;7.43;;;3.45;;
73296;SDS011;61524;50.938;11.396;2023-09-18T09:55:01;7.47;;;3.03;;
73296;SDS011;61524;50.938;11.396;2023-09-18T09:57:29;5.78;;;2.70;;
73296;SDS011;61524;50.938;11.396;2023-09-18T10:00:02;8.50;;;3.65;;
73296;SDS011;61524;50.938;11.396;2023-09-18T10:02:31;8.73;;;3.00;;
73296;SDS011;61524;50.938;11.396;2023-09-18T10:04:59;6.78;;;2.90;;
73296;SDS011;61524;50.938;11.396;2023-09-18T10:07:24;8.10;;;3.63;;
73296;SDS011;61524;50.938;11.396;2023-09-18T10:09:50;6.97;;;3.10;;
73296;SDS011;61524;50.938;11.396;2023-09-18T10:12:17;6.75;;;2.70;;
73296;SDS011;61524;50.938;11.396;2023-09-18T10:14:45;8.00;;;3.15;;
73296;SDS011;61524;50.938;11.396;2023-09-18T10:17:17;7.80;;;2.80;;
73296;SDS011;61524;50.938;11.396;2023-09-18T10:19:45;7.95;;;3.22;;
73296;SDS011;61524;50.938;11.396;2023-09-18T10:24:36;13.80;;;3.45;;
73296;SDS011;61524;50.938;11.396;2023-09-18T10:27:02;10.82;;;3.13;;
73296;SDS011;61524;50.938;11.396;2023-09-18T10:29:29;10.27;;;2.80;;
73296;SDS011;61524;50.938;11.396;2023-09-18T10:31:55;5.43;;;2.30;;
73296;SDS011;61524;50.938;11.396;2023-09-18T10:34:22;6.32;;;2.08;;
73296;SDS011;61524;50.938;11.396;2023-09-18T10:36:49;8.20;;;2.05;;
73296;SDS011;61524;50.938;11.396;2023-09-18T10:39:15;5.88;;;2.05;;
73296;SDS011;61524;50.938;11.396;2023-09-18T10:41:47;5.22;;;2.30;;
73296;SDS011;61524;50.938;11.396;2023-09-18T10:44:13;5.07;;;2.00;;
73296;SDS011;61524;50.938;11.396;2023-09-18T10:46:39;7.30;;;2.25;;
73296;SDS011;61524;50.938;11.396;2023-09-18T10:49:04;4.97;;;2.00;;
73296;SDS011;61524;50.938;11.396;2023-09-18T10:51:30;4.78;;;1.70;;
73296;SDS011;61524;50.938;11.396;2023-09-18T10:53:57;6.60;;;2.30;;
73296;SDS011;61524;50.938;11.396;2023-09-18T10:56:22;4.50;;;1.90;;
73296;SDS011;61524;50.938;11.396;2023-09-18T10:58:55;5.05;;;1.80;;
73296;SDS011;61524;50.938;11.396;2023-09-18T11:01:20;6.68;;;2.05;;
73296;SDS011;61524;50.938;11.396;2023-09-18T11:03:49;3.92;;;1.75;;
73296;SDS011;61524;50.938;11.396;2023-09-18T11:06:15;6.18;;;2.00;;
73296;SDS011;61524;50.938;11.396;2023-09-18T11:08:43;6.38;;;2.05;;
73296;SDS011;61524;50.938;11.396;2023-09-18T11:11:11;4.45;;;1.80;;
73296;SDS011;61524;50.938;11.396;2023-09-18T11:13:42;8.27;;;2.42;;
73296;SDS011;61524;50.938;11.396;2023-09-18T11:16:15;4.78;;;2.17;;
73296;SDS011;61524;50.938;11.396;2023-09-18T11:18:40;5.10;;;2.05;;
73296;SDS011;61524;50.938;11.396;2023-09-18T11:21:08;4.32;;;1.67;;
73296;SDS011;61524;50.938;11.396;2023-09-18T11:23:34;4.25;;;2.17;;
73296;SDS011;61524;50.938;11.396;2023-09-18T11:26:03;8.02;;;2.00;;
73296;SDS011;61524;50.938;11.396;2023-09-18T11:28:29;4.88;;;1.88;;
73296;SDS011;61524;50.938;11.396;2023-09-18T11:30:57;5.53;;;1.92;;
73296;SDS011;61524;50.938;11.396;2023-09-18T11:35:57;10.10;;;2.63;;
73296;SDS011;61524;50.938;11.396;2023-09-18T11:38:23;5.32;;;2.20;;
73296;SDS011;61524;50.938;11.396;2023-09-18T11:40:51;5.10;;;2.20;;
73296;SDS011;61524;50.938;11.396;2023-09-18T11:45:43;8.35;;;2.28;;
73296;SDS011;61524;50.938;11.396;2023-09-18T11:48:09;6.82;;;2.10;;
73296;SDS011;61524;50.938;11.396;2023-09-18T11:50:35;5.78;;;2.28;;
73296;SDS011;61524;50.938;11.396;2023-09-18T11:53:01;6.78;;;2.30;;
73296;SDS011;61524;50.938;11.396;2023-09-18T11:55:27;3.90;;;2.00;;
73296;SDS011;61524;50.938;11.396;2023-09-18T11:57:53;6.07;;;2.40;;
73296;SDS011;61524;50.938;11.396;2023-09-18T12:00:23;6.80;;;2.88;;
73296;SDS011;61524;50.938;11.396;2023-09-18T12:02:52;4.82;;;2.10;;
73296;SDS011;61524;50.938;11.396;2023-09-18T12:05:17;5.13;;;1.95;;
73296;SDS011;61524;50.938;11.396;2023-09-18T12:07:51;4.47;;;2.17;;
73296;SDS011;61524;50.938;11.396;2023-09-18T12:10:17;5.78;;;1.83;;
73296;SDS011;61524;50.938;11.396;2023-09-18T12:12:42;5.78;;;2.10;;
73296;SDS011;61524;50.938;11.396;2023-09-18T12:15:10;5.57;;;1.70;;
73296;SDS011;61524;50.938;11.396;2023-09-18T12:17:36;5.18;;;2.03;;
73296;SDS011;61524;50.938;11.396;2023-09-18T12:20:01;7.47;;;2.20;;
73296;SDS011;61524;50.938;11.396;2023-09-18T12:22:29;6.13;;;1.95;;
73296;SDS011;61524;50.938;11.396;2023-09-18T12:27:35;4.50;;;2.03;;
73296;SDS011;61524;50.938;11.396;2023-09-18T12:30:01;5.18;;;2.00;;
73296;SDS011;61524;50.938;11.396;2023-09-18T12:32:29;5.28;;;2.15;;
73296;SDS011;61524;50.938;11.396;2023-09-18T12:37:34;4.20;;;2.05;;
73296;SDS011;61524;50.938;11.396;2023-09-18T12:40:00;5.97;;;2.00;;
73296;SDS011;61524;50.938;11.396;2023-09-18T12:42:26;5.70;;;1.80;;
73296;SDS011;61524;50.938;11.396;2023-09-18T12:44:51;3.40;;;1.50;;
73296;SDS011;61524;50.938;11.396;2023-09-18T12:47:17;4.07;;;2.13;;
73296;SDS011;61524;50.938;11.396;2023-09-18T12:49:42;7.18;;;2.08;;
73296;SDS011;61524;50.938;11.396;2023-09-18T12:52:08;5.90;;;1.80;;
73296;SDS011;61524;50.938;11.396;2023-09-18T12:54:37;5.07;;;2.30;;
73296;SDS011;61524;50.938;11.396;2023-09-18T12:57:04;5.25;;;2.05;;
73296;SDS011;61524;50.938;11.396;2023-09-18T12:59:33;4.20;;;1.58;;
73296;SDS011;61524;50.938;11.396;2023-09-18T13:02:00;6.05;;;1.95;;
73296;SDS011;61524;50.938;11.396;2023-09-18T13:04:26;4.32;;;1.90;;
73296;SDS011;61524;50.938;11.396;2023-09-18T13:07:06;4.22;;;1.50;;
73296;SDS011;61524;50.938;11.396;2023-09-18T13:09:33;5.97;;;2.33;;
73296;SDS011;61524;50.938;11.396;2023-09-18T13:12:00;3.55;;;1.35;;
73296;SDS011;61524;50.938;11.396;2023-09-18T13:14:25;5.10;;;2.20;;
73296;SDS011;61524;50.938;11.396;2023-09-18T13:16:50;6.35;;;1.73;;
73296;SDS011;61524;50.938;11.396;2023-09-18T13:19:17;3.63;;;1.73;;
73296;SDS011;61524;50.938;11.396;2023-09-18T13:21:48;5.05;;;2.05;;
73296;SDS011;61524;50.938;11.396;2023-09-18T13:24:30;6.93;;;2.17;;
73296;SDS011;61524;50.938;11.396;2023-09-18T13:26:56;6.25;;;2.03;;
73296;SDS011;61524;50.938;11.396;2023-09-18T13:29:22;6.40;;;1.83;;
73296;SDS011;61524;50.938;11.396;2023-09-18T13:31:48;6.18;;;2.20;;
73296;SDS011;61524;50.938;11.396;2023-09-18T13:34:13;7.35;;;1.90;;
73296;SDS011;61524;50.938;11.396;2023-09-18T13:36:42;4.60;;;1.92;;
73296;SDS011;61524;50.938;11.396;2023-09-18T13:39:08;5.03;;;1.88;;
73296;SDS011;61524;50.938;11.396;2023-09-18T13:41:33;3.50;;;1.77;;
73296;SDS011;61524;50.938;11.396;2023-09-18T13:43:59;5.88;;;2.03;;
73296;SDS011;61524;50.938;11.396;2023-09-18T13:46:24;5.80;;;2.13;;
73296;SDS011;61524;50.938;11.396;2023-09-18T13:48:49;5.77;;;2.20;;
73296;SDS011;61524;50.938;11.396;2023-09-18T13:51:16;4.00;;;1.75;;
73296;SDS011;61524;50.938;11.396;2023-09-18T13:53:41;3.85;;;1.70;;
73296;SDS011;61524;50.938;11.396;2023-09-18T13:56:07;5.35;;;1.73;;
73296;SDS011;61524;50.938;11.396;2023-09-18T13:58:32;3.97;;;1.70;;
73296;SDS011;61524;50.938;11.396;2023-09-18T14:00:58;4.13;;;1.73;;
73296;SDS011;61524;50.938;11.396;2023-09-18T14:03:24;3.92;;;1.70;;
73296;SDS011;61524;50.938;11.396;2023-09-18T14:05:49;6.25;;;2.10;;
73296;SDS011;61524;50.938;11.396;2023-09-18T14:08:15;4.30;;;1.80;;
73296;SDS011;61524;50.938;11.396;2023-09-18T14:10:42;5.75;;;2.15;;
73296;SDS011;61524;50.938;11.396;2023-09-18T14:13:08;4.88;;;1.65;;
73296;SDS011;61524;50.938;11.396;2023-09-18T14:15:33;8.25;;;1.98;;
73296;SDS011;61524;50.938;11.396;2023-09-18T14:17:58;3.70;;;1.60;;
73296;SDS011;61524;50.938;11.396;2023-09-18T14:20:23;6.70;;;1.80;;
73296;SDS011;61524;50.938;11.396;2023-09-18T14:23:07;4.55;;;1.80;;
73296;SDS011;61524;50.938;11.396;2023-09-18T14:25:32;4.60;;;1.73;;
73296;SDS011;61524;50.938;11.396;2023-09-18T14:27:58;3.85;;;1.55;;
73296;SDS011;61524;50.938;11.396;2023-09-18T14:30:24;5.88;;;1.73;;
73296;SDS011;61524;50.938;11.396;2023-09-18T14:32:55;5.57;;;1.77;;
73296;SDS011;61524;50.938;11.396;2023-09-18T14:35:20;3.87;;;1.67;;
73296;SDS011;61524;50.938;11.396;2023-09-18T14:37:45;4.07;;;1.60;;
73296;SDS011;61524;50.938;11.396;2023-09-18T14:40:11;6.90;;;1.80;;
73296;SDS011;61524;50.938;11.396;2023-09-18T14:42:37;5.05;;;1.83;;
73296;SDS011;61524;50.938;11.396;2023-09-18T14:45:02;5.40;;;1.92;;
73296;SDS011;61524;50.938;11.396;2023-09-18T14:47:28;6.00;;;1.98;;